createdAt,value
2022-12-04T00:00:00.508Z,84.55
2022-12-04T00:01:00.476Z,84.55
2022-12-04T00:02:00.462Z,84.55
2022-12-04T00:03:00.509Z,84.65
2022-12-04T00:04:00.437Z,84.69
2022-12-04T00:05:00.517Z,84.65
2022-12-04T00:06:00.431Z,84.65
2022-12-04T00:07:00.406Z,84.75
2022-12-04T00:08:00.589Z,84.75
2022-12-04T00:09:00.390Z,84.75
2022-12-04T00:10:00.378Z,84.65
2022-12-04T00:11:00.359Z,84.65
2022-12-04T00:12:00.363Z,84.65
2022-12-04T00:13:00.345Z,84.75
2022-12-04T00:14:06.471Z,84.75
2022-12-04T00:15:24.497Z,84.75
2022-12-04T00:16:00.361Z,84.69
2022-12-04T00:17:00.289Z,84.69
2022-12-04T00:18:00.303Z,84.79
2022-12-04T00:19:00.270Z,84.75
2022-12-04T00:20:00.257Z,84.89
2022-12-04T00:21:00.246Z,84.79
2022-12-04T00:22:00.233Z,84.79
2022-12-04T00:23:00.218Z,84.79
2022-12-04T00:24:00.235Z,84.89
2022-12-04T00:25:00.199Z,84.89
2022-12-04T00:26:00.214Z,84.89
2022-12-04T00:27:00.191Z,84.89
2022-12-04T00:28:00.197Z,84.86
2022-12-04T00:29:00.190Z,84.86
2022-12-04T00:30:00.165Z,84.89
2022-12-04T00:31:00.152Z,84.89
2022-12-04T00:32:00.226Z,84.86
2022-12-04T00:33:00.113Z,84.86
2022-12-04T00:34:00.551Z,84.89
2022-12-04T00:35:00.078Z,84.86
2022-12-04T00:36:00.092Z,84.79
2022-12-04T00:37:00.076Z,84.75
2022-12-04T00:38:00.074Z,84.75
2022-12-04T00:39:00.045Z,84.75
2022-12-04T00:40:00.029Z,84.79
2022-12-04T00:41:00.041Z,84.75
2022-12-04T00:42:00.032Z,84.75
2022-12-04T00:42:59.990Z,84.75
2022-12-04T00:44:00.004Z,84.75
2022-12-04T00:44:59.977Z,84.86
2022-12-04T00:45:59.985Z,84.75
2022-12-04T00:46:59.954Z,84.86
2022-12-04T00:47:59.947Z,84.75
2022-12-04T00:48:59.923Z,84.86
2022-12-04T00:49:59.929Z,84.86
2022-12-04T00:50:59.898Z,84.86
2022-12-04T00:51:59.892Z,84.86
2022-12-04T00:52:59.887Z,84.75
2022-12-04T00:53:59.886Z,84.75
2022-12-04T00:54:59.883Z,84.75
2022-12-04T00:55:59.870Z,84.75
2022-12-04T00:56:59.834Z,84.75
2022-12-04T00:58:00.299Z,84.65
2022-12-04T00:58:59.818Z,84.65
2022-12-04T00:59:59.799Z,84.75
2022-12-04T01:00:59.865Z,84.75
2022-12-04T01:01:59.803Z,84.86
2022-12-04T01:02:59.840Z,84.75
2022-12-04T01:03:59.775Z,84.75
2022-12-04T01:04:59.748Z,84.75
2022-12-04T01:05:59.730Z,84.75
2022-12-04T01:07:04.693Z,84.75
2022-12-04T01:07:59.874Z,84.65
2022-12-04T01:08:59.697Z,84.55
2022-12-04T01:09:59.690Z,84.55
2022-12-04T01:10:59.677Z,84.55
2022-12-04T01:11:59.660Z,84.65
2022-12-04T01:12:59.670Z,84.65
2022-12-04T01:13:59.656Z,84.75
2022-12-04T01:14:59.631Z,84.75
2022-12-04T01:15:59.684Z,84.86
2022-12-04T01:16:59.689Z,84.86
2022-12-04T01:17:59.600Z,84.86
2022-12-04T01:18:59.606Z,84.86
2022-12-04T01:19:59.574Z,84.86
2022-12-04T01:20:59.601Z,84.75
2022-12-04T01:21:59.562Z,84.65
2022-12-04T01:22:59.556Z,84.75
2022-12-04T01:23:59.526Z,84.75
2022-12-04T01:24:59.520Z,84.65
2022-12-04T01:25:59.521Z,84.75
2022-12-04T01:26:59.523Z,84.65
2022-12-04T01:27:59.501Z,84.58
2022-12-04T01:28:59.470Z,84.69
2022-12-04T01:29:59.476Z,84.79
2022-12-04T01:30:59.455Z,84.69
2022-12-04T01:31:59.570Z,84.79
2022-12-04T01:32:59.463Z,84.79
2022-12-04T01:33:59.437Z,84.86
2022-12-04T01:34:59.407Z,84.86
2022-12-04T01:35:59.407Z,84.86
2022-12-04T01:36:59.385Z,84.96
2022-12-04T01:37:59.373Z,84.86
2022-12-04T01:38:59.387Z,84.75
2022-12-04T01:39:59.347Z,84.79
2022-12-04T01:40:59.355Z,84.69
2022-12-04T01:41:59.338Z,84.75
2022-12-04T01:42:59.318Z,84.75
2022-12-04T01:43:59.321Z,84.86
2022-12-04T01:44:59.296Z,84.65
2022-12-04T01:45:59.336Z,84.69
2022-12-04T01:46:59.270Z,84.69
2022-12-04T01:47:59.256Z,84.69
2022-12-04T01:48:59.246Z,84.79
2022-12-04T01:49:59.248Z,84.89
2022-12-04T01:50:59.232Z,84.89
2022-12-04T01:51:59.214Z,84.89
2022-12-04T01:52:59.201Z,84.86
2022-12-04T01:53:59.193Z,84.86
2022-12-04T01:54:59.180Z,84.79
2022-12-04T01:55:59.186Z,84.79
2022-12-04T01:56:59.163Z,84.75
2022-12-04T01:57:59.140Z,84.79
2022-12-04T01:58:59.149Z,84.79
2022-12-04T01:59:59.143Z,84.79
2022-12-04T02:01:00.776Z,84.89
2022-12-04T02:01:59.262Z,84.89
2022-12-04T02:02:59.216Z,84.79
2022-12-04T02:03:59.074Z,84.79
2022-12-04T02:04:59.087Z,84.79
2022-12-04T02:05:59.074Z,84.89
2022-12-04T02:06:59.045Z,84.89
2022-12-04T02:07:59.120Z,84.79
2022-12-04T02:08:59.055Z,84.89
2022-12-04T02:09:59.022Z,84.79
2022-12-04T02:10:59.001Z,84.89
2022-12-04T02:11:59.010Z,84.89
2022-12-04T02:12:58.988Z,84.89
2022-12-04T02:13:58.958Z,85.00
2022-12-04T02:14:58.960Z,85.00
2022-12-04T02:15:58.968Z,85.00
2022-12-04T02:16:59.086Z,85.00
2022-12-04T02:17:58.924Z,85.00
2022-12-04T02:18:58.911Z,85.00
2022-12-04T02:19:58.912Z,85.00
2022-12-04T02:20:58.917Z,85.11
2022-12-04T02:21:58.921Z,85.11
2022-12-04T02:22:58.875Z,85.11
2022-12-04T02:23:58.853Z,85.21
2022-12-04T02:24:58.837Z,85.11
2022-12-04T02:25:58.830Z,85.11
2022-12-04T02:26:58.814Z,85.00
2022-12-04T02:27:58.800Z,84.89
2022-12-04T02:28:58.816Z,84.89
2022-12-04T02:29:58.796Z,85.00
2022-12-04T02:30:58.902Z,85.00
2022-12-04T02:31:58.815Z,85.00
2022-12-04T02:32:58.756Z,85.00
2022-12-04T02:33:58.748Z,85.00
2022-12-04T02:34:58.742Z,85.00
2022-12-04T02:35:58.727Z,85.00
2022-12-04T02:36:58.707Z,85.00
2022-12-04T02:37:58.686Z,85.00
2022-12-04T02:38:58.685Z,85.00
2022-12-04T02:39:58.871Z,85.00
2022-12-04T02:40:58.654Z,85.00
2022-12-04T02:41:58.650Z,85.00
2022-12-04T02:42:58.635Z,85.00
2022-12-04T02:43:58.625Z,85.11
2022-12-04T02:44:58.628Z,85.11
2022-12-04T02:45:58.669Z,85.00
2022-12-04T02:46:58.585Z,85.11
2022-12-04T02:47:58.581Z,85.11
2022-12-04T02:48:58.570Z,85.21
2022-12-04T02:49:58.831Z,85.21
2022-12-04T02:50:58.551Z,85.11
2022-12-04T02:51:58.559Z,85.11
2022-12-04T02:52:58.515Z,85.11
2022-12-04T02:53:58.507Z,85.11
2022-12-04T02:54:58.495Z,85.00
2022-12-04T02:55:58.488Z,85.00
2022-12-04T02:56:58.472Z,85.00
2022-12-04T02:57:58.486Z,85.00
2022-12-04T02:58:58.451Z,85.00
2022-12-04T02:59:58.665Z,85.11
2022-12-04T03:00:58.477Z,85.11
2022-12-04T03:01:58.461Z,85.11
2022-12-04T03:02:58.483Z,85.11
2022-12-04T03:03:58.390Z,85.11
2022-12-04T03:04:58.386Z,85.11
2022-12-04T03:05:58.400Z,85.00
2022-12-04T03:06:58.362Z,85.11
2022-12-04T03:07:58.458Z,85.00
2022-12-04T03:08:58.414Z,85.00
2022-12-04T03:09:58.560Z,85.00
2022-12-04T03:10:58.346Z,84.89
2022-12-04T03:11:58.326Z,84.89
2022-12-04T03:12:58.378Z,84.89
2022-12-04T03:13:58.329Z,85.00
2022-12-04T03:14:58.333Z,85.00
2022-12-04T03:15:58.259Z,85.00
2022-12-04T03:16:58.374Z,85.00
2022-12-04T03:17:58.245Z,85.00
2022-12-04T03:18:58.266Z,84.89
2022-12-04T03:19:58.366Z,84.79
2022-12-04T03:20:58.240Z,84.79
2022-12-04T03:21:58.217Z,84.79
2022-12-04T03:22:58.211Z,84.79
2022-12-04T03:23:58.193Z,84.83
2022-12-04T03:24:58.181Z,84.89
2022-12-04T03:25:58.176Z,85.00
2022-12-04T03:26:58.169Z,85.00
2022-12-04T03:27:58.157Z,85.00
2022-12-04T03:28:58.142Z,85.00
2022-12-04T03:29:58.203Z,85.00
2022-12-04T03:30:58.229Z,85.00
2022-12-04T03:31:58.095Z,85.00
2022-12-04T03:32:58.076Z,85.00
2022-12-04T03:33:58.094Z,85.00
2022-12-04T03:34:58.081Z,84.89
2022-12-04T03:35:58.069Z,84.79
2022-12-04T03:36:58.067Z,84.79
2022-12-04T03:37:58.053Z,84.69
2022-12-04T03:38:57.989Z,84.69
2022-12-04T03:39:58.343Z,84.79
2022-12-04T03:40:57.976Z,84.79
2022-12-04T03:41:58.010Z,84.79
2022-12-04T03:42:58.007Z,84.79
2022-12-04T03:43:57.987Z,84.79
2022-12-04T03:44:57.983Z,84.79
2022-12-04T03:45:58.070Z,84.89
2022-12-04T03:46:57.949Z,84.89
2022-12-04T03:47:57.961Z,84.89
2022-12-04T03:48:57.961Z,84.89
2022-12-04T03:49:58.189Z,84.89
2022-12-04T03:50:57.903Z,84.89
2022-12-04T03:51:57.849Z,84.79
2022-12-04T03:52:57.838Z,84.89
2022-12-04T03:53:57.825Z,84.94
2022-12-04T03:54:57.873Z,84.94
2022-12-04T03:55:57.833Z,84.83
2022-12-04T03:56:57.803Z,84.94
2022-12-04T03:57:57.797Z,84.94
2022-12-04T03:58:57.795Z,85.04
2022-12-04T03:59:58.424Z,85.04
2022-12-04T04:00:57.789Z,85.04
2022-12-04T04:01:57.786Z,84.94
2022-12-04T04:02:57.827Z,84.94
2022-12-04T04:03:57.715Z,85.04
2022-12-04T04:04:57.735Z,85.04
2022-12-04T04:05:57.695Z,85.14
2022-12-04T04:06:57.747Z,85.25
2022-12-04T04:07:57.758Z,85.25
2022-12-04T04:08:57.686Z,85.29
2022-12-04T04:09:58.120Z,85.39
2022-12-04T04:10:57.653Z,85.39
2022-12-04T04:11:57.620Z,85.39
2022-12-04T04:12:57.618Z,85.50
2022-12-04T04:13:57.614Z,85.60
2022-12-04T04:14:57.649Z,85.60
2022-12-04T04:15:57.634Z,85.60
2022-12-04T04:16:57.597Z,85.71
2022-12-04T04:17:57.563Z,85.71
2022-12-04T04:18:57.534Z,85.81
2022-12-04T04:19:57.892Z,85.81
2022-12-04T04:20:57.548Z,85.91
2022-12-04T04:21:57.515Z,85.91
2022-12-04T04:22:57.524Z,85.91
2022-12-04T04:23:57.508Z,85.91
2022-12-04T04:24:57.478Z,85.91
2022-12-04T04:25:57.471Z,85.91
2022-12-04T04:26:57.490Z,85.91
2022-12-04T04:27:57.449Z,85.91
2022-12-04T04:28:57.461Z,85.91
2022-12-04T04:29:57.968Z,85.81
2022-12-04T04:30:57.473Z,85.81
2022-12-04T04:31:57.422Z,85.81
2022-12-04T04:32:57.422Z,85.77
2022-12-04T04:33:57.370Z,85.67
2022-12-04T04:34:57.374Z,85.67
2022-12-04T04:35:57.347Z,85.67
2022-12-04T04:36:57.339Z,85.56
2022-12-04T04:37:57.344Z,85.56
2022-12-04T04:38:57.345Z,85.56
2022-12-04T04:39:57.761Z,85.46
2022-12-04T04:40:57.298Z,85.25
2022-12-04T04:41:57.277Z,85.14
2022-12-04T04:42:57.280Z,84.94
2022-12-04T04:43:57.266Z,84.94
2022-12-04T04:44:57.263Z,84.83
2022-12-04T04:45:57.306Z,84.73
2022-12-04T04:46:57.324Z,84.52
2022-12-04T04:47:57.212Z,84.52
2022-12-04T04:48:57.209Z,84.48
2022-12-04T04:49:57.583Z,84.48
2022-12-04T04:50:57.189Z,84.38
2022-12-04T04:51:57.193Z,84.27
2022-12-04T04:52:57.168Z,84.17
2022-12-04T04:53:57.172Z,84.06
2022-12-04T04:54:57.138Z,83.95
2022-12-04T04:55:57.131Z,83.85
2022-12-04T04:56:57.110Z,83.75
2022-12-04T04:57:57.116Z,83.75
2022-12-04T04:58:57.097Z,83.75
2022-12-04T04:59:57.620Z,83.64
2022-12-04T05:00:57.105Z,83.54
2022-12-04T05:01:57.134Z,83.33
2022-12-04T05:02:57.179Z,83.12
2022-12-04T05:03:57.064Z,83.01
2022-12-04T05:04:57.030Z,83.01
2022-12-04T05:05:57.020Z,83.12
2022-12-04T05:06:56.998Z,82.91
2022-12-04T05:07:57.024Z,82.70
2022-12-04T05:08:56.979Z,82.60
2022-12-04T05:09:57.285Z,82.50
2022-12-04T05:10:56.950Z,82.53
2022-12-04T05:11:56.946Z,82.64
2022-12-04T05:12:56.931Z,82.74
2022-12-04T05:13:56.932Z,82.74
2022-12-04T05:14:56.943Z,82.84
2022-12-04T05:15:56.958Z,82.95
2022-12-04T05:17:01.696Z,82.95
2022-12-04T05:17:56.888Z,83.09
2022-12-04T05:18:56.871Z,83.20
2022-12-04T05:19:57.588Z,83.30
2022-12-04T05:20:56.876Z,83.40
2022-12-04T05:21:56.842Z,83.51
2022-12-04T05:22:56.821Z,83.51
2022-12-04T05:23:56.808Z,83.62
2022-12-04T05:24:56.845Z,83.51
2022-12-04T05:25:56.797Z,83.51
2022-12-04T05:26:56.789Z,83.51
2022-12-04T05:27:56.758Z,83.62
2022-12-04T05:28:56.748Z,83.72
2022-12-04T05:29:57.101Z,83.72
2022-12-04T05:30:56.777Z,83.72
2022-12-04T05:31:56.735Z,83.72
2022-12-04T05:32:56.699Z,83.62
2022-12-04T05:33:56.687Z,83.51
2022-12-04T05:34:56.699Z,83.51
2022-12-04T05:35:56.687Z,83.51
2022-12-04T05:36:56.685Z,83.51
2022-12-04T05:37:56.652Z,83.51
2022-12-04T05:38:56.656Z,83.51
2022-12-04T05:39:56.851Z,83.62
2022-12-04T05:40:56.612Z,83.51
2022-12-04T05:41:56.607Z,83.51
2022-12-04T05:42:56.606Z,83.40
2022-12-04T05:43:56.580Z,83.40
2022-12-04T05:44:56.590Z,83.30
2022-12-04T05:45:56.558Z,83.30
2022-12-04T05:46:56.602Z,83.30
2022-12-04T05:47:56.558Z,83.30
2022-12-04T05:48:56.531Z,83.16
2022-12-04T05:49:56.896Z,83.16
2022-12-04T05:50:56.503Z,83.06
2022-12-04T05:51:56.492Z,82.99
2022-12-04T05:52:56.488Z,83.06
2022-12-04T05:53:56.489Z,82.95
2022-12-04T05:54:56.472Z,83.06
2022-12-04T05:55:56.450Z,82.95
2022-12-04T05:56:56.452Z,83.06
2022-12-04T05:57:56.431Z,83.06
2022-12-04T05:58:56.409Z,83.06
2022-12-04T05:59:56.721Z,83.16
2022-12-04T06:00:56.393Z,83.06
2022-12-04T06:01:56.496Z,83.06
2022-12-04T06:02:56.414Z,83.06
2022-12-04T06:03:56.360Z,82.95
2022-12-04T06:04:56.345Z,82.95
2022-12-04T06:05:56.355Z,82.95
2022-12-04T06:06:56.330Z,82.95
2022-12-04T06:07:56.337Z,82.95
2022-12-04T06:08:56.307Z,82.95
2022-12-04T06:09:56.634Z,82.95
2022-12-04T06:10:56.277Z,82.84
2022-12-04T06:11:56.269Z,82.84
2022-12-04T06:12:56.245Z,82.84
2022-12-04T06:13:56.256Z,82.84
2022-12-04T06:14:56.250Z,82.84
2022-12-04T06:15:56.279Z,82.84
2022-12-04T06:16:56.334Z,82.84
2022-12-04T06:17:56.208Z,82.84
2022-12-04T06:18:56.187Z,82.84
2022-12-04T06:19:56.579Z,82.84
2022-12-04T06:20:56.278Z,82.84
2022-12-04T06:21:56.148Z,82.84
2022-12-04T06:22:56.140Z,82.84
2022-12-04T06:23:56.136Z,82.74
2022-12-04T06:24:56.116Z,82.64
2022-12-04T06:25:56.399Z,82.53
2022-12-04T06:27:56.086Z,82.43
2022-12-04T06:28:56.076Z,82.22
2022-12-04T06:29:56.388Z,82.22
2022-12-04T06:30:56.050Z,82.12
2022-12-04T06:31:56.081Z,82.12
2022-12-04T06:32:56.034Z,82.12
2022-12-04T06:33:56.009Z,82.22
2022-12-04T06:34:56.014Z,82.22
2022-12-04T06:35:55.997Z,82.12
2022-12-04T06:36:55.986Z,82.01
2022-12-04T06:37:55.984Z,81.73
2022-12-04T06:38:55.959Z,81.73
2022-12-04T06:39:56.308Z,81.95
2022-12-04T06:40:55.928Z,82.12
2022-12-04T06:41:55.942Z,82.12
2022-12-04T06:42:55.923Z,82.12
2022-12-04T06:43:55.921Z,82.01
2022-12-04T06:44:55.894Z,82.01
2022-12-04T06:45:55.936Z,82.01
2022-12-04T06:46:55.893Z,82.01
2022-12-04T06:47:55.864Z,81.90
2022-12-04T06:48:55.844Z,81.90
2022-12-04T06:49:56.218Z,81.90
2022-12-04T06:50:55.826Z,81.80
2022-12-04T06:51:55.806Z,81.90
2022-12-04T06:52:55.797Z,81.90
2022-12-04T06:53:55.791Z,81.90
2022-12-04T06:54:55.806Z,81.90
2022-12-04T06:55:55.761Z,81.80
2022-12-04T06:56:55.759Z,81.90
2022-12-04T06:57:55.751Z,81.80
2022-12-04T06:58:55.747Z,81.80
2022-12-04T06:59:55.937Z,81.80
2022-12-04T07:00:55.824Z,81.90
2022-12-04T07:01:55.761Z,81.80
2022-12-04T07:02:55.763Z,81.70
2022-12-04T07:03:55.673Z,81.80
2022-12-04T07:04:55.664Z,81.90
2022-12-04T07:05:55.661Z,82.01
2022-12-04T07:06:56.026Z,81.90
2022-12-04T07:07:55.697Z,81.80
2022-12-04T07:08:55.618Z,81.80
2022-12-04T07:09:55.935Z,81.70
2022-12-04T07:10:59.197Z,81.70
2022-12-04T07:11:55.877Z,81.70
2022-12-04T07:12:55.598Z,81.70
2022-12-04T07:13:55.579Z,81.70
2022-12-04T07:14:55.555Z,81.70
2022-12-04T07:15:55.552Z,81.70
2022-12-04T07:16:57.039Z,81.80
2022-12-04T07:17:54.525Z,81.66
2022-12-04T07:18:55.505Z,81.76
2022-12-04T07:19:55.938Z,81.66
2022-12-04T07:20:55.576Z,81.66
2022-12-04T07:21:55.480Z,81.56
2022-12-04T07:22:55.494Z,81.56
2022-12-04T07:23:55.468Z,81.56
2022-12-04T07:24:55.439Z,81.56
2022-12-04T07:25:55.425Z,81.56
2022-12-04T07:26:55.421Z,81.45
2022-12-04T07:27:55.408Z,81.35
2022-12-04T07:28:55.428Z,81.35
2022-12-04T07:29:55.708Z,81.28
2022-12-04T07:30:55.377Z,81.28
2022-12-04T07:31:55.569Z,81.38
2022-12-04T07:32:55.365Z,81.38
2022-12-04T07:33:55.376Z,81.38
2022-12-04T07:34:55.350Z,81.45
2022-12-04T07:35:55.316Z,81.45
2022-12-04T07:36:55.301Z,81.35
2022-12-04T07:37:55.294Z,81.35
2022-12-04T07:38:55.282Z,81.49
2022-12-04T07:39:55.627Z,81.38
2022-12-04T07:40:55.283Z,81.45
2022-12-04T07:41:55.248Z,81.45
2022-12-04T07:42:55.300Z,81.56
2022-12-04T07:43:55.222Z,81.45
2022-12-04T07:44:55.874Z,81.35
2022-12-04T07:45:55.285Z,81.45
2022-12-04T07:46:55.211Z,81.56
2022-12-04T07:47:55.182Z,81.35
2022-12-04T07:48:55.166Z,81.03
2022-12-04T07:49:55.502Z,80.93
2022-12-04T07:50:55.189Z,80.93
2022-12-04T07:51:55.153Z,81.07
2022-12-04T07:52:55.117Z,81.07
2022-12-04T07:53:58.557Z,81.07
2022-12-04T07:54:55.097Z,81.07
2022-12-04T07:55:55.742Z,81.18
2022-12-04T07:56:55.104Z,81.18
2022-12-04T07:57:55.089Z,81.18
2022-12-04T07:58:55.054Z,81.28
2022-12-04T07:59:55.427Z,81.28
2022-12-04T08:00:55.099Z,81.28
2022-12-04T08:01:55.745Z,81.18
2022-12-04T08:02:55.426Z,81.18
2022-12-04T08:03:55.007Z,81.24
2022-12-04T08:04:55.399Z,81.28
2022-12-04T08:05:58.108Z,81.24
2022-12-04T08:06:54.979Z,81.24
2022-12-04T08:07:55.080Z,81.13
2022-12-04T08:08:55.129Z,81.18
2022-12-04T08:09:55.858Z,81.07
2022-12-04T08:10:54.921Z,81.07
2022-12-04T08:11:54.919Z,81.18
2022-12-04T08:12:55.249Z,81.28
2022-12-04T08:13:55.201Z,81.24
2022-12-04T08:14:54.880Z,81.24
2022-12-04T08:15:54.863Z,81.24
2022-12-04T08:16:54.901Z,81.13
2022-12-04T08:17:54.844Z,81.13
2022-12-04T08:18:54.861Z,81.13
2022-12-04T08:19:55.268Z,81.13
2022-12-04T08:20:54.859Z,81.13
2022-12-04T08:21:54.789Z,81.13
2022-12-04T08:22:54.786Z,81.24
2022-12-04T08:23:54.773Z,81.13
2022-12-04T08:24:54.775Z,81.03
2022-12-04T08:25:54.747Z,80.99
2022-12-04T08:26:54.739Z,80.99
2022-12-04T08:27:54.726Z,80.89
2022-12-04T08:28:54.753Z,80.89
2022-12-04T08:29:55.095Z,80.58
2022-12-04T08:30:54.807Z,80.58
2022-12-04T08:31:54.684Z,80.58
2022-12-04T08:32:54.676Z,80.58
2022-12-04T08:33:54.661Z,80.47
2022-12-04T08:34:56.068Z,80.51
2022-12-04T08:35:54.645Z,80.51
2022-12-04T08:36:54.636Z,80.51
2022-12-04T08:37:54.615Z,80.51
2022-12-04T08:38:54.664Z,80.37
2022-12-04T08:39:54.994Z,80.47
2022-12-04T08:40:54.595Z,80.58
2022-12-04T08:41:57.137Z,80.37
2022-12-04T08:42:54.555Z,80.37
2022-12-04T08:43:54.681Z,80.37
2022-12-04T08:44:54.548Z,80.37
2022-12-04T08:45:54.621Z,80.47
2022-12-04T08:46:54.516Z,80.44
2022-12-04T08:47:54.504Z,80.27
2022-12-04T08:48:54.540Z,80.16
2022-12-04T08:49:54.785Z,80.37
2022-12-04T08:50:54.470Z,80.37
2022-12-04T08:51:54.457Z,80.16
2022-12-04T08:52:54.459Z,80.05
2022-12-04T08:53:54.444Z,80.05
2022-12-04T08:54:54.451Z,80.27
2022-12-04T08:55:54.431Z,80.13
2022-12-04T08:56:54.395Z,80.13
2022-12-04T08:57:54.392Z,80.02
2022-12-04T08:58:54.373Z,80.02
2022-12-04T08:59:54.754Z,80.23
2022-12-04T09:00:54.387Z,80.23
2022-12-04T09:01:54.389Z,80.23
2022-12-04T09:02:54.329Z,80.09
2022-12-04T09:03:54.442Z,80.02
2022-12-04T09:04:54.504Z,80.02
2022-12-04T09:05:54.300Z,79.88
2022-12-04T09:06:54.283Z,79.77
2022-12-04T09:07:54.311Z,79.67
2022-12-04T09:08:54.333Z,79.46
2022-12-04T09:09:54.275Z,79.50
2022-12-04T09:10:54.237Z,79.46
2022-12-04T09:11:54.224Z,79.29
2022-12-04T09:12:54.232Z,79.29
2022-12-04T09:13:54.205Z,79.39
2022-12-04T09:14:54.214Z,79.29
2022-12-04T09:15:54.228Z,79.19
2022-12-04T09:16:54.191Z,79.19
2022-12-04T09:17:54.166Z,79.39
2022-12-04T09:18:54.165Z,79.19
2022-12-04T09:19:59.254Z,79.19
2022-12-04T09:20:54.165Z,79.39
2022-12-04T09:21:54.129Z,79.39
2022-12-04T09:23:03.952Z,79.29
2022-12-04T09:23:54.109Z,79.08
2022-12-04T09:24:54.098Z,78.97
2022-12-04T09:25:54.084Z,79.08
2022-12-04T09:26:54.065Z,79.08
2022-12-04T09:27:54.061Z,79.19
2022-12-04T09:28:54.051Z,79.19
2022-12-04T09:29:54.443Z,79.29
2022-12-04T09:30:54.063Z,79.29
2022-12-04T09:31:53.998Z,79.29
2022-12-04T09:32:54.002Z,79.25
2022-12-04T09:33:53.982Z,79.25
2022-12-04T09:34:53.991Z,79.15
2022-12-04T09:35:54.005Z,79.25
2022-12-04T09:36:53.965Z,79.15
2022-12-04T09:37:53.946Z,78.94
2022-12-04T09:38:53.943Z,78.94
2022-12-04T09:39:54.266Z,78.94
2022-12-04T09:40:53.917Z,78.83
2022-12-04T09:41:53.885Z,79.05
2022-12-04T09:42:53.924Z,79.08
2022-12-04T09:43:53.872Z,78.97
2022-12-04T09:44:53.878Z,79.08
2022-12-04T09:45:53.925Z,79.39
2022-12-04T09:46:53.935Z,79.29
2022-12-04T09:47:53.826Z,79.39
2022-12-04T09:48:53.842Z,79.36
2022-12-04T09:49:54.264Z,79.36
2022-12-04T09:50:53.785Z,79.36
2022-12-04T09:51:53.778Z,79.25
2022-12-04T09:52:53.776Z,79.25
2022-12-04T09:53:53.749Z,79.25
2022-12-04T09:54:53.766Z,79.25
2022-12-04T09:55:53.741Z,79.15
2022-12-04T09:56:53.740Z,79.15
2022-12-04T09:57:58.493Z,79.15
2022-12-04T09:58:53.715Z,79.05
2022-12-04T09:59:54.028Z,79.15
2022-12-04T10:00:53.674Z,79.36
2022-12-04T10:01:53.674Z,79.36
2022-12-04T10:02:53.830Z,79.25
2022-12-04T10:03:54.000Z,79.46
2022-12-04T10:04:53.628Z,79.46
2022-12-04T10:05:53.660Z,79.15
2022-12-04T10:06:53.624Z,79.15
2022-12-04T10:07:53.648Z,78.97
2022-12-04T10:08:53.583Z,79.19
2022-12-04T10:09:53.787Z,79.19
2022-12-04T10:10:53.570Z,79.15
2022-12-04T10:11:53.552Z,79.19
2022-12-04T10:12:53.567Z,79.19
2022-12-04T10:13:53.523Z,79.15
2022-12-04T10:14:53.508Z,79.36
2022-12-04T10:15:53.588Z,79.36
2022-12-04T10:16:53.487Z,79.43
2022-12-04T10:17:53.482Z,80.26
2022-12-04T10:18:53.482Z,80.43
2022-12-04T10:19:53.759Z,79.91
2022-12-04T10:20:53.456Z,79.49
2022-12-04T10:21:53.433Z,79.46
2022-12-04T10:22:53.434Z,78.97
2022-12-04T10:23:53.413Z,78.45
2022-12-04T10:24:53.441Z,78.45
2022-12-04T10:25:53.404Z,78.45
2022-12-04T10:26:53.375Z,78.24
2022-12-04T10:27:53.374Z,78.03
2022-12-04T10:28:55.404Z,78.24
2022-12-04T10:29:53.586Z,78.24
2022-12-04T10:30:53.372Z,78.34
2022-12-04T10:31:53.314Z,78.24
2022-12-04T10:32:53.309Z,78.28
2022-12-04T10:33:53.312Z,78.17
2022-12-04T10:34:53.287Z,78.38
2022-12-04T10:35:53.349Z,78.73
2022-12-04T10:36:53.277Z,78.91
2022-12-04T10:37:53.273Z,79.01
2022-12-04T10:38:53.242Z,79.11
2022-12-04T10:39:53.669Z,78.97
2022-12-04T10:40:53.227Z,78.87
2022-12-04T10:41:53.213Z,78.77
2022-12-04T10:42:53.198Z,78.34
2022-12-04T10:43:53.208Z,78.56
2022-12-04T10:44:53.181Z,78.77
2022-12-04T10:45:53.173Z,78.56
2022-12-04T10:46:53.251Z,78.56
2022-12-04T10:47:53.133Z,78.56
2022-12-04T10:48:53.137Z,78.66
2022-12-04T10:49:53.420Z,78.45
2022-12-04T10:50:53.118Z,78.45
2022-12-04T10:51:53.116Z,78.31
2022-12-04T10:52:53.091Z,78.31
2022-12-04T10:53:53.066Z,78.10
2022-12-04T10:54:53.069Z,78.03
2022-12-04T10:55:53.057Z,78.14
2022-12-04T10:56:53.035Z,78.24
2022-12-04T10:57:53.032Z,78.14
2022-12-04T10:58:53.014Z,78.03
2022-12-04T10:59:53.357Z,78.14
2022-12-04T11:00:53.008Z,77.93
2022-12-04T11:01:53.085Z,77.89
2022-12-04T11:02:53.045Z,78.20
2022-12-04T11:03:52.957Z,78.20
2022-12-04T11:04:52.976Z,77.89
2022-12-04T11:05:52.944Z,77.89
2022-12-04T11:06:52.943Z,77.89
2022-12-04T11:07:53.027Z,77.79
2022-12-04T11:08:52.897Z,77.79
2022-12-04T11:09:53.055Z,77.83
2022-12-04T11:10:52.898Z,77.83
2022-12-04T11:11:52.870Z,77.93
2022-12-04T11:12:52.876Z,77.93
2022-12-04T11:13:52.881Z,78.03
2022-12-04T11:14:52.833Z,78.14
2022-12-04T11:15:52.888Z,78.14
2022-12-04T11:16:52.830Z,78.24
2022-12-04T11:17:52.799Z,78.34
2022-12-04T11:18:52.786Z,78.24
2022-12-04T11:19:52.819Z,78.34
2022-12-04T11:20:52.776Z,78.49
2022-12-04T11:21:52.782Z,78.38
2022-12-04T11:22:52.745Z,78.59
2022-12-04T11:23:52.734Z,78.77
2022-12-04T11:24:52.722Z,78.77
2022-12-04T11:25:52.730Z,78.66
2022-12-04T11:26:52.710Z,78.66
2022-12-04T11:27:52.704Z,78.59
2022-12-04T11:28:52.680Z,78.59
2022-12-04T11:29:52.667Z,78.69
2022-12-04T11:30:52.646Z,78.87
2022-12-04T11:31:52.756Z,78.87
2022-12-04T11:32:52.645Z,79.08
2022-12-04T11:33:52.625Z,78.94
2022-12-04T11:34:52.608Z,78.83
2022-12-04T11:35:52.603Z,78.73
2022-12-04T11:36:52.590Z,78.73
2022-12-04T11:37:52.594Z,78.66
2022-12-04T11:38:52.581Z,78.52
2022-12-04T11:39:52.547Z,78.63
2022-12-04T11:40:52.565Z,78.63
2022-12-04T11:41:52.555Z,78.63
2022-12-04T11:42:52.519Z,78.52
2022-12-04T11:43:56.717Z,78.42
2022-12-04T11:44:52.511Z,78.42
2022-12-04T11:45:52.488Z,78.31
2022-12-04T11:46:52.507Z,78.42
2022-12-04T11:47:52.473Z,78.42
2022-12-04T11:48:52.451Z,78.34
2022-12-04T11:49:52.448Z,78.56
2022-12-04T11:50:52.444Z,78.77
2022-12-04T11:51:52.420Z,78.66
2022-12-04T11:52:52.401Z,78.77
2022-12-04T11:53:52.425Z,78.77
2022-12-04T11:54:52.391Z,78.77
2022-12-04T11:55:52.372Z,78.77
2022-12-04T11:56:52.371Z,78.97
2022-12-04T11:57:52.342Z,79.04
2022-12-04T11:58:52.336Z,79.04
2022-12-04T11:59:52.348Z,79.04
2022-12-04T12:00:52.322Z,78.83
2022-12-04T12:01:57.995Z,78.73
2022-12-04T12:02:52.452Z,78.63
2022-12-04T12:03:52.306Z,78.52
2022-12-04T12:04:52.299Z,78.52
2022-12-04T12:05:52.269Z,78.52
2022-12-04T12:06:52.244Z,78.63
2022-12-04T12:07:55.279Z,78.73
2022-12-04T12:08:52.255Z,78.87
2022-12-04T12:09:52.206Z,78.97
2022-12-04T12:10:52.220Z,79.08
2022-12-04T12:11:52.217Z,79.18
2022-12-04T12:12:52.184Z,79.18
2022-12-04T12:13:52.166Z,79.18
2022-12-04T12:14:52.159Z,79.14
2022-12-04T12:15:52.164Z,79.14
2022-12-04T12:16:55.209Z,79.04
2022-12-04T12:17:52.113Z,78.97
2022-12-04T12:18:52.110Z,79.14
2022-12-04T12:19:52.093Z,79.14
2022-12-04T12:20:52.099Z,79.04
2022-12-04T12:21:52.071Z,79.04
2022-12-04T12:22:52.100Z,79.04
2022-12-04T12:23:52.059Z,79.04
2022-12-04T12:24:52.038Z,79.04
2022-12-04T12:25:52.661Z,79.14
2022-12-04T12:26:52.025Z,79.14
2022-12-04T12:27:52.031Z,79.14
2022-12-04T12:28:52.006Z,79.04
2022-12-04T12:29:52.017Z,79.04
2022-12-04T12:30:51.977Z,79.04
2022-12-04T12:31:52.000Z,79.14
2022-12-04T12:32:51.954Z,78.94
2022-12-04T12:33:51.974Z,79.04
2022-12-04T12:34:51.938Z,79.14
2022-12-04T12:35:51.915Z,79.25
2022-12-04T12:36:53.328Z,79.35
2022-12-04T12:37:51.903Z,79.35
2022-12-04T12:38:51.893Z,79.46
2022-12-04T12:39:51.897Z,79.35
2022-12-04T12:40:51.873Z,79.25
2022-12-04T12:41:51.855Z,79.28
2022-12-04T12:42:57.837Z,79.28
2022-12-04T12:43:51.838Z,79.49
2022-12-04T12:44:51.845Z,79.60
2022-12-04T12:45:51.898Z,79.49
2022-12-04T12:46:51.802Z,79.70
2022-12-04T12:47:51.783Z,79.70
2022-12-04T12:48:57.952Z,79.80
2022-12-04T12:49:51.778Z,79.80
2022-12-04T12:51:08.929Z,79.91
2022-12-04T12:51:51.764Z,79.91
2022-12-04T12:52:51.743Z,79.91